Orbital elements of JAS-2
| Launched | 16 August 1996 |
| Flight ended | – |
| Launch site | Tanegashima Space Center, Japan |
| Owner | Japan |
| NORAD ID | 24278 |
| Alternative names |
FO-29 |
| Date fetched |
Epoch osculation |
Inc. [°] |
Ecc. | RA asc node [hr] |
Arg Peri. [°] |
Mean anom [°] |
Mean motion [rev/day] |
Abs. mag |
| Date fetched |
Epoch osculation |
Inc. [°] |
Ecc. | RA asc node [hr] |
Arg Peri. [°] |
Mean anom [°] |
Mean motion [rev/day] |
Abs. mag |
| 2026 May 06 17:57 | 2026 May 06 07:33:59 | 98.5286 | 0.03494 | 22.7275 | 204.9476 | 153.4419 | 13.53272 | 10.243 |
| 2026 May 05 17:57 | 2026 May 05 08:29:53 | 98.5286 | 0.03494 | 22.6721 | 207.4465 | 153.4419 | 13.53272 | 10.243 |
| 2026 May 04 17:57 | 2026 May 04 11:12:15 | 98.5288 | 0.03493 | 22.6210 | 209.7517 | 153.4419 | 13.53272 | 10.243 |
| 2026 May 03 17:57 | 2026 May 03 05:02:17 | 98.5290 | 0.03493 | 22.5487 | 213.0178 | 153.4419 | 13.53272 | 10.243 |
| 2026 May 02 17:57 | 2026 May 02 07:44:39 | 98.5292 | 0.03492 | 22.4976 | 215.3240 | 153.4419 | 13.53272 | 10.243 |
| 2026 May 01 17:56 | 2026 May 01 03:21:09 | 98.5294 | 0.03492 | 22.4295 | 218.3995 | 153.4419 | 13.53272 | 10.243 |
| 2026 Apr 30 17:56 | 2026 Apr 30 11:22:56 | 98.5296 | 0.03492 | 22.3911 | 220.1294 | 153.4419 | 13.53272 | 10.243 |
| 2026 Apr 29 17:57 | 2026 Apr 29 12:18:51 | 98.5297 | 0.03492 | 22.3358 | 222.6291 | 153.4419 | 13.53272 | 10.243 |
| 2026 Apr 28 17:56 | 2026 Apr 28 11:28:18 | 98.5299 | 0.03491 | 22.2762 | 225.3209 | 153.4419 | 13.53272 | 10.243 |
| 2026 Apr 27 17:58 | 2026 Apr 27 10:37:44 | 98.5301 | 0.03491 | 22.2166 | 228.0133 | 153.4419 | 13.53272 | 10.243 |
| 2026 Apr 26 17:58 | 2026 Apr 25 14:16:02 | 98.5303 | 0.03490 | 22.1101 | 232.8208 | 153.4419 | 13.53272 | 10.243 |
| 2026 Apr 25 17:58 | 2026 Apr 25 12:29:34 | 98.5303 | 0.03490 | 22.1058 | 233.0128 | 153.4419 | 13.53272 | 10.243 |
| 2026 Apr 24 17:59 | 2026 Apr 24 04:33:09 | 98.5304 | 0.03490 | 22.0292 | 236.4743 | 153.4419 | 13.53272 | 10.243 |
| 2026 Apr 23 17:57 | 2026 Apr 23 00:09:40 | 98.5306 | 0.03489 | 21.9611 | 239.5519 | 153.4419 | 13.53272 | 10.243 |
| 2026 Apr 22 17:57 | 2026 Apr 22 01:05:36 | 98.5307 | 0.03489 | 21.9057 | 242.0527 | 153.4419 | 13.53272 | 10.243 |
| 2026 Apr 21 17:57 | 2026 Apr 20 20:42:07 | 98.5309 | 0.03489 | 21.8376 | 245.1317 | 153.4419 | 13.53272 | 10.243 |
| 2026 Apr 20 17:57 | 2026 Apr 20 11:49:47 | 98.5309 | 0.03489 | 21.8163 | 246.0941 | 153.4419 | 13.53272 | 10.243 |
| 2026 Apr 19 17:58 | 2026 Apr 19 09:12:47 | 98.5311 | 0.03489 | 21.7524 | 248.9804 | 153.4419 | 13.53272 | 10.243 |
| 2026 Apr 18 17:56 | 2026 Apr 18 03:02:51 | 98.5314 | 0.03488 | 21.6800 | 252.2517 | 153.4419 | 13.53272 | 10.243 |
| 2026 Apr 16 17:57 | 2026 Apr 16 01:21:47 | 98.5318 | 0.03488 | 21.5607 | 257.6399 | 153.4419 | 13.53272 | 10.243 |
| 2026 Apr 14 17:57 | 2026 Apr 14 10:19:32 | 98.5321 | 0.03488 | 21.4670 | 261.8734 | 153.4419 | 13.53272 | 10.243 |
| 2026 Apr 13 17:57 | 2026 Apr 13 00:36:41 | 98.5323 | 0.03488 | 21.3861 | 265.5285 | 153.4419 | 13.53272 | 10.243 |
| 2026 Apr 12 17:57 | 2026 Apr 12 08:38:29 | 98.5324 | 0.03488 | 21.3478 | 267.2605 | 153.4419 | 13.53272 | 10.243 |
| 2026 Apr 11 17:57 | 2026 Apr 11 11:20:54 | 98.5326 | 0.03488 | 21.2966 | 269.5697 | 153.4419 | 13.53272 | 10.243 |
| 2026 Apr 10 17:58 | 2026 Apr 10 03:24:31 | 98.5328 | 0.03488 | 21.2200 | 273.0338 | 153.4419 | 13.53272 | 10.243 |
| 2026 Apr 09 18:01 | 2026 Apr 09 04:20:29 | 98.5328 | 0.03488 | 21.1646 | 275.5347 | 153.4419 | 13.53272 | 10.243 |